Garwood, NJ (07027)

03:49 AM EST die 20o February, anno 2017 (GMT -0500)
Garwood | | Change Station

Elev 102 ft 40.65 °N, 74.33 °W | Updated 29 seconds ago

Serena
Serena
43.6 °F
Feels Like 44 °F
N
0.0
Ventus Variabilis Ventus from Magis Zephyrus quam Auster

Hodie
High -- | Low -- °F
--% Chance of Precip.
Yesterday
High -- | Low -- °F
Precip. -- in
Pressio 30.03 in
Visibilitas 10.0 milia passuum
Clouds Nubes Dispersae 25000 ft
Frigus Venti 44 °F
Frigus in quo Ros apparet 33 °F
Umor 66%
Rainfall 0.00 in
Snow Depth Not available.
6:43 AM 5:38 PM
Waning Crescent, 36% visible
METAR KEWR 200751Z 31010KT 10SM SCT250 09/00 A3003 RMK AO2 SLP167 T00890000 $
Pressio 30.03 in
Visibilitas 10.0 milia passuum
Clouds Nubes Dispersae 25000 ft
Frigus Venti 44 °F
Frigus in quo Ros apparet 33 °F
Umor 66%
Rainfall 0.00 in
Snow Depth Not available.
6:43 AM 5:38 PM
Waning Crescent, 36% visible
METAR KEWR 200751Z 31010KT 10SM SCT250 09/00 A3003 RMK AO2 SLP167 T00890000 $

Get Your Daily Forecast Email!

Thanks for signing up!

Be on the lookout for a verification email in your inbox.

You'll start receiving the daily forecast at 8 AM.

×

10-Day Weather Forecast

Almanac

Astronomy

Feb. 20, 2017 Rise Set
Actual Time
Civil Twilight
Nautical Twilight
Astronomical Twilight
Moon
Length Of Visible Light
Length of Day
Tomorrow will be .
, % of the Moon is Illuminated

Today's Extremes

State Highs State Lows

Community

WunderPhotos

Upload Photos

1,962,540 photos uploaded!

WunderBlog® & News

Nearby

Air Quality

  Air Quality AQ Index Pollutant
Not available.

Snow Depth

Station Depth Elevation

Earthquake Activity

City Distance Mag. Time & Date
Minimum magnitude displayed is 2.5.

Coastal Water Temperatures

Locus Calor

Stations

Nearby Weather Stations

Station Location Temp Frigus Venti Frigus in quo Ros apparet Umor Ventus Precip. Elev Renovata Type
                   

Watches & Warnings

There are currently no watches in effect.